Terminal Aerodrome Forecast
Issued by NWS

Home | Current Version | Previous Version | Text Only | Print | Product List | Glossary On
Versions: 1 2 3 4 5 6 7 8 9 10 11 12 13 14 15 16 17
000
FTUS43 KIND 010800 AAA
TAFLAF
TAF AMD
KLAF 010820Z 0108/0206 08004KT P6SM SKC
      TEMPO 0110/0114 4SM BR
     FM011400 12005KT P6SM SCT250
      AMD LTD TO CLD VIS AND WIND TIL 011300=

USA.gov is the U.S. government's official web portal to all federal, state and local government web resources and services.